createdAt,value
2023-12-26T00:00:50.787Z,9.60
2023-12-26T00:03:19.974Z,9.85
2023-12-26T00:05:48.022Z,9.63
2023-12-26T00:08:17.488Z,8.88
2023-12-26T00:10:50.512Z,9.05
2023-12-26T00:13:17.430Z,9.13
2023-12-26T00:15:44.416Z,8.90
2023-12-26T00:18:14.022Z,8.98
2023-12-26T00:20:49.985Z,10.10
2023-12-26T00:23:16.970Z,8.38
2023-12-26T00:28:20.686Z,9.10
2023-12-26T00:30:47.728Z,8.68
2023-12-26T00:33:15.112Z,8.40
2023-12-26T00:35:42.160Z,8.20
2023-12-26T00:38:12.173Z,8.43
2023-12-26T00:40:42.417Z,9.05
2023-12-26T00:43:09.538Z,7.95
2023-12-26T00:45:48.944Z,8.10
2023-12-26T00:48:21.480Z,8.23
2023-12-26T00:50:48.406Z,8.38
2023-12-26T00:53:15.449Z,8.63
2023-12-26T00:55:42.297Z,9.20
2023-12-26T00:58:09.211Z,8.00
2023-12-26T01:00:36.497Z,8.02
2023-12-26T01:03:04.781Z,7.80
2023-12-26T01:05:31.735Z,8.27
2023-12-26T01:07:58.815Z,8.52
2023-12-26T01:10:28.825Z,8.00
2023-12-26T01:12:59.031Z,7.68
2023-12-26T01:15:51.060Z,7.93
2023-12-26T01:31:01.783Z,7.85
2023-12-26T01:33:32.057Z,7.32
2023-12-26T01:36:01.449Z,7.80
2023-12-26T01:39:00.696Z,7.85
2023-12-26T01:41:38.964Z,7.40
2023-12-26T01:44:08.247Z,7.13
2023-12-26T01:49:58.289Z,7.13
2023-12-26T01:52:26.750Z,7.30
2023-12-26T01:54:54.017Z,7.45
2023-12-26T01:57:21.413Z,7.20
2023-12-26T01:59:50.497Z,7.40
2023-12-26T02:02:19.721Z,8.35
2023-12-26T02:04:47.744Z,7.47
2023-12-26T02:07:16.692Z,7.15
2023-12-26T02:09:43.633Z,7.30
2023-12-26T02:12:10.673Z,6.75
2023-12-26T02:14:37.847Z,7.47
2023-12-26T02:17:09.413Z,7.15
2023-12-26T02:19:43.386Z,7.25
2023-12-26T02:22:10.704Z,6.72
2023-12-26T02:24:43.731Z,6.68
2023-12-26T02:27:19.906Z,7.03
2023-12-26T02:29:50.430Z,7.10
2023-12-26T02:32:22.695Z,6.53
2023-12-26T02:34:55.766Z,6.82
2023-12-26T02:37:29.331Z,7.10
2023-12-26T02:39:56.417Z,6.82
2023-12-26T02:42:25.991Z,6.95
2023-12-26T02:45:02.116Z,6.60
2023-12-26T02:47:29.216Z,6.55
2023-12-26T02:49:56.164Z,5.95
2023-12-26T02:52:23.315Z,6.45
2023-12-26T02:54:50.270Z,6.20
2023-12-26T02:57:17.177Z,6.93
2023-12-26T02:59:44.002Z,6.65
2023-12-26T03:02:10.961Z,6.38
2023-12-26T03:04:38.979Z,6.97
2023-12-26T03:07:21.402Z,6.45
2023-12-26T03:09:48.248Z,6.68
2023-12-26T03:12:15.080Z,6.70
2023-12-26T03:14:41.908Z,6.45
2023-12-26T03:17:08.739Z,6.57
2023-12-26T03:19:35.753Z,6.32
2023-12-26T03:22:02.783Z,6.45
2023-12-26T03:24:29.570Z,6.10
2023-12-26T03:26:58.591Z,5.80
2023-12-26T03:29:25.507Z,6.35
2023-12-26T03:31:52.363Z,5.93
2023-12-26T03:34:19.467Z,6.38
2023-12-26T03:40:54.352Z,5.93
2023-12-26T03:43:21.497Z,6.13
2023-12-26T03:45:51.011Z,5.38
2023-12-26T03:48:21.613Z,6.43
2023-12-26T03:50:48.850Z,6.65
2023-12-26T03:53:18.991Z,6.10
2023-12-26T03:55:49.098Z,5.60
2023-12-26T04:00:44.468Z,5.88
2023-12-26T04:03:11.791Z,5.85
2023-12-26T04:05:48.371Z,5.40
2023-12-26T04:08:19.408Z,6.00
2023-12-26T04:10:58.123Z,6.25
2023-12-26T04:18:20.571Z,5.43
2023-12-26T04:20:47.483Z,5.68
2023-12-26T04:23:14.363Z,5.93
2023-12-26T04:25:41.194Z,5.63
2023-12-26T04:28:11.641Z,5.28
2023-12-26T04:30:38.597Z,5.53
2023-12-26T04:33:07.014Z,5.60
2023-12-26T04:35:33.982Z,5.43
2023-12-26T04:38:01.235Z,5.10
2023-12-26T04:40:43.111Z,5.68
2023-12-26T04:46:52.665Z,5.03
2023-12-26T04:49:19.691Z,5.45
2023-12-26T04:51:46.514Z,5.20
2023-12-26T04:54:13.646Z,5.20
2023-12-26T04:56:44.491Z,5.07
2023-12-26T04:59:11.416Z,5.03
2023-12-26T05:01:46.854Z,5.50
2023-12-26T05:04:24.079Z,5.20
2023-12-26T05:06:50.911Z,5.75
2023-12-26T05:09:17.896Z,5.45
2023-12-26T05:11:46.684Z,5.30
2023-12-26T05:14:13.964Z,5.43
2023-12-26T05:16:45.893Z,4.53
2023-12-26T05:19:13.292Z,4.72
2023-12-26T05:21:40.119Z,4.53
2023-12-26T05:27:54.321Z,5.03
2023-12-26T05:30:21.541Z,4.60
2023-12-26T05:33:04.518Z,4.82
2023-12-26T05:35:31.535Z,4.63
2023-12-26T05:37:58.411Z,4.43
2023-12-26T05:40:25.293Z,4.88
2023-12-26T05:42:54.729Z,4.30
2023-12-26T05:45:23.229Z,4.75
2023-12-26T05:53:31.766Z,4.15
2023-12-26T05:55:58.640Z,4.55
2023-12-26T05:58:31.476Z,4.65
2023-12-26T06:00:58.314Z,4.22
2023-12-26T06:03:25.410Z,4.40
2023-12-26T06:05:52.294Z,3.92
2023-12-26T06:08:19.176Z,4.07
2023-12-26T06:10:49.144Z,4.07
2023-12-26T06:13:15.914Z,4.28
2023-12-26T06:15:42.695Z,4.28
2023-12-26T06:21:52.053Z,4.25
2023-12-26T06:30:40.038Z,4.18
2023-12-26T06:33:08.132Z,4.00
2023-12-26T06:35:36.084Z,3.60
2023-12-26T06:38:02.956Z,4.00
2023-12-26T06:40:37.154Z,4.25
2023-12-26T06:43:04.156Z,3.85
2023-12-26T06:45:31.076Z,3.83
2023-12-26T06:47:58.037Z,3.72
2023-12-26T06:50:24.974Z,3.95
2023-12-26T06:52:52.065Z,4.15
2023-12-26T06:55:21.209Z,3.80
2023-12-26T06:57:48.170Z,3.70
2023-12-26T07:00:18.944Z,4.13
2023-12-26T07:02:48.663Z,3.60
2023-12-26T07:05:18.269Z,3.85
2023-12-26T07:08:16.789Z,3.70
2023-12-26T07:10:43.779Z,3.78
2023-12-26T07:13:21.824Z,3.55
2023-12-26T07:15:48.919Z,3.47
2023-12-26T07:18:15.871Z,3.58
2023-12-26T07:20:42.700Z,3.50
2023-12-26T07:23:09.618Z,3.50
2023-12-26T07:25:43.884Z,4.00
2023-12-26T07:28:16.050Z,3.63
2023-12-26T07:30:43.241Z,3.58
2023-12-26T07:33:10.441Z,3.25
2023-12-26T07:35:38.655Z,3.80
2023-12-26T07:38:06.246Z,3.20
2023-12-26T07:40:33.570Z,3.42
2023-12-26T07:43:00.890Z,3.67
2023-12-26T07:45:28.895Z,3.65
2023-12-26T07:47:56.686Z,3.63
2023-12-26T07:50:23.925Z,3.42
2023-12-26T07:52:53.494Z,3.50
2023-12-26T07:55:20.503Z,3.03
2023-12-26T07:57:48.689Z,3.50
2023-12-26T08:00:17.109Z,3.35
2023-12-26T08:10:28.822Z,3.60
2023-12-26T08:12:57.602Z,3.47
2023-12-26T08:15:24.644Z,3.42
2023-12-26T08:20:35.844Z,4.38
2023-12-26T08:23:02.630Z,3.90
2023-12-26T08:25:32.617Z,4.00
2023-12-26T08:27:59.459Z,3.50
2023-12-26T08:31:00.900Z,3.25
2023-12-26T08:33:32.681Z,3.40
2023-12-26T08:36:01.795Z,3.63
2023-12-26T08:38:29.374Z,3.40
2023-12-26T08:41:00.820Z,3.55
2023-12-26T08:47:47.412Z,3.30
2023-12-26T08:50:14.469Z,3.40
2023-12-26T08:52:41.345Z,3.28
2023-12-26T08:55:49.933Z,3.53
2023-12-26T08:58:21.788Z,3.40
2023-12-26T09:00:49.087Z,3.15
2023-12-26T09:03:22.186Z,3.45
2023-12-26T09:05:51.995Z,3.47
2023-12-26T09:08:18.964Z,3.17
2023-12-26T09:10:46.094Z,3.25
2023-12-26T09:13:13.049Z,3.35
2023-12-26T09:15:40.001Z,2.92
2023-12-26T09:21:05.154Z,3.25
2023-12-26T09:23:32.032Z,3.13
2023-12-26T09:26:02.968Z,3.00
2023-12-26T09:28:51.932Z,3.15
2023-12-26T09:43:31.943Z,3.00
2023-12-26T09:49:16.224Z,3.17
2023-12-26T10:01:39.166Z,3.17
2023-12-26T10:06:57.357Z,2.90
2023-12-26T10:12:10.634Z,2.92
2023-12-26T10:22:24.862Z,2.60
2023-12-26T10:25:22.484Z,3.05
2023-12-26T10:33:51.330Z,2.63
2023-12-26T10:36:21.038Z,2.40
2023-12-26T10:38:48.008Z,3.10
2023-12-26T10:41:27.142Z,3.20
2023-12-26T10:43:58.448Z,2.80
2023-12-26T10:46:30.049Z,2.75
2023-12-26T10:49:06.624Z,3.42
2023-12-26T10:51:35.302Z,3.90
2023-12-26T10:54:10.202Z,3.92
2023-12-26T10:56:40.667Z,3.17
2023-12-26T10:59:08.666Z,3.25
2023-12-26T11:02:32.743Z,3.22
2023-12-26T11:09:14.896Z,4.10
2023-12-26T11:12:38.460Z,4.00
2023-12-26T11:16:01.558Z,4.00
2023-12-26T11:19:24.960Z,4.32
2023-12-26T11:22:47.980Z,4.82
2023-12-26T11:26:10.952Z,5.13
2023-12-26T11:29:34.273Z,5.68
2023-12-26T11:32:58.145Z,6.00
2023-12-26T11:36:21.394Z,6.90
2023-12-26T11:40:03.391Z,5.72
2023-12-26T11:43:27.707Z,6.88
2023-12-26T11:46:52.254Z,6.68
2023-12-26T11:50:15.364Z,6.15
2023-12-26T11:53:40.861Z,6.10
2023-12-26T11:57:04.196Z,7.45
2023-12-26T12:21:01.759Z,5.20
2023-12-26T12:28:14.575Z,4.95
2023-12-26T12:31:39.881Z,5.35
2023-12-26T12:44:36.533Z,5.03
2023-12-26T12:50:35.307Z,4.53
2023-12-26T12:53:58.362Z,4.47
2023-12-26T12:57:24.576Z,4.78
2023-12-26T13:00:49.838Z,4.75
2023-12-26T13:04:22.902Z,4.85
2023-12-26T13:07:46.206Z,5.05
2023-12-26T13:11:10.736Z,4.28
2023-12-26T13:14:33.943Z,4.63
2023-12-26T13:17:59.359Z,4.63
2023-12-26T13:21:29.038Z,4.68
2023-12-26T13:24:22.446Z,4.65
2023-12-26T13:27:50.408Z,4.72
2023-12-26T13:31:13.751Z,4.68
2023-12-26T13:34:41.099Z,3.90
2023-12-26T13:41:51.945Z,4.10
2023-12-26T13:48:56.732Z,4.55
2023-12-26T13:52:01.126Z,4.53
2023-12-26T14:00:59.908Z,4.20
2023-12-26T14:04:05.927Z,4.85
2023-12-26T14:07:22.525Z,5.93
2023-12-26T14:10:26.812Z,6.07
2023-12-26T14:13:31.195Z,6.88
2023-12-26T14:20:04.108Z,7.35
2023-12-26T14:23:11.973Z,7.32
2023-12-26T14:37:13.918Z,6.45
2023-12-26T14:40:22.048Z,6.50
2023-12-26T14:43:30.935Z,6.45
2023-12-26T14:46:35.713Z,5.85
2023-12-26T15:02:23.784Z,5.70
2023-12-26T15:04:52.978Z,5.55
2023-12-26T15:07:21.362Z,5.95
2023-12-26T15:15:12.599Z,5.57
2023-12-26T15:17:44.854Z,5.38
2023-12-26T15:23:13.832Z,5.57
2023-12-26T15:25:50.322Z,6.05
2023-12-26T15:28:59.037Z,5.28
2023-12-26T15:31:19.637Z,5.03
2023-12-26T15:36:45.741Z,5.50
2023-12-26T15:39:36.111Z,5.63
2023-12-26T15:44:55.911Z,5.30
2023-12-26T15:47:23.719Z,5.75
2023-12-26T15:49:53.055Z,5.35
2023-12-26T15:52:22.409Z,5.00
2023-12-26T15:54:54.729Z,5.18
2023-12-26T15:57:21.902Z,5.20
2023-12-26T15:59:53.227Z,5.57
2023-12-26T16:02:35.731Z,4.90
2023-12-26T16:05:04.297Z,4.95
2023-12-26T16:07:33.394Z,5.28
2023-12-26T16:10:02.648Z,4.82
2023-12-26T16:12:35.547Z,5.22
2023-12-26T16:15:02.785Z,5.32
2023-12-26T16:17:41.465Z,5.07
2023-12-26T16:20:22.410Z,4.93
2023-12-26T16:23:02.149Z,5.32
2023-12-26T16:28:25.642Z,5.47
2023-12-26T16:32:44.489Z,5.70
2023-12-26T16:34:13.899Z,5.43
2023-12-26T16:40:05.221Z,6.03
2023-12-26T16:42:35.420Z,5.55
2023-12-26T16:48:42.444Z,6.15
2023-12-26T16:51:12.902Z,5.90
2023-12-26T16:53:54.148Z,5.60
2023-12-26T16:56:23.474Z,6.78
2023-12-26T17:04:08.702Z,6.10
2023-12-26T17:06:45.584Z,6.00
2023-12-26T17:14:38.669Z,7.32
2023-12-26T17:17:06.060Z,6.20
2023-12-26T17:19:33.542Z,6.53
2023-12-26T17:22:00.538Z,7.53
2023-12-26T17:24:32.292Z,6.13
2023-12-26T17:27:04.844Z,7.35
2023-12-26T17:29:42.334Z,6.80
2023-12-26T17:32:11.801Z,6.43
2023-12-26T17:34:43.243Z,6.60
2023-12-26T17:37:23.178Z,6.32
2023-12-26T17:39:51.378Z,6.63
2023-12-26T17:46:05.667Z,6.15
2023-12-26T17:48:33.389Z,6.18
2023-12-26T17:56:35.777Z,5.63
2023-12-26T18:04:05.546Z,5.90
2023-12-26T18:06:32.960Z,5.75
2023-12-26T18:09:00.295Z,6.30
2023-12-26T18:15:04.805Z,5.93
2023-12-26T18:17:49.985Z,5.72
2023-12-26T18:20:19.985Z,6.22
2023-12-26T18:22:46.960Z,7.65
2023-12-26T18:25:13.966Z,6.25
2023-12-26T18:28:21.166Z,5.60
2023-12-26T18:30:48.345Z,6.97
2023-12-26T18:33:21.034Z,7.15
2023-12-26T18:35:48.757Z,5.97
2023-12-26T18:38:16.129Z,5.93
2023-12-26T18:40:46.139Z,6.25
2023-12-26T18:46:04.660Z,6.00
2023-12-26T18:49:24.460Z,6.50
2023-12-26T19:05:49.139Z,6.32
2023-12-26T19:08:15.938Z,5.97
2023-12-26T19:10:42.911Z,6.13
2023-12-26T19:17:00.228Z,6.18
2023-12-26T19:19:29.883Z,6.38
2023-12-26T19:22:07.673Z,6.50
2023-12-26T19:28:48.727Z,6.32
2023-12-26T19:56:56.762Z,5.93
2023-12-26T19:59:29.401Z,5.80
2023-12-26T20:37:10.962Z,6.25
2023-12-26T20:39:51.172Z,6.18
2023-12-26T20:42:29.371Z,6.45
2023-12-26T20:45:07.523Z,5.47
2023-12-26T20:54:56.427Z,5.93
2023-12-26T20:57:26.260Z,5.25
2023-12-26T21:02:55.036Z,5.65
2023-12-26T21:05:22.162Z,5.70
2023-12-26T21:07:55.514Z,5.53
2023-12-26T21:11:13.146Z,5.78
2023-12-26T21:23:43.534Z,7.57
2023-12-26T21:26:14.869Z,7.43
2023-12-26T21:32:35.023Z,7.38
2023-12-26T21:35:04.183Z,7.70
2023-12-26T21:41:16.230Z,7.95
2023-12-26T21:43:46.324Z,7.22
2023-12-26T21:55:35.056Z,7.28
2023-12-26T21:58:04.563Z,7.82
2023-12-26T22:00:42.617Z,7.43
2023-12-26T22:03:12.253Z,7.65
2023-12-26T22:05:40.077Z,8.07
2023-12-26T22:08:15.648Z,7.68
2023-12-26T22:10:44.995Z,7.22
2023-12-26T22:13:14.345Z,7.45
2023-12-26T22:15:43.531Z,7.43
2023-12-26T22:18:13.165Z,7.22
2023-12-26T22:20:45.682Z,7.15
2023-12-26T22:26:22.666Z,6.63
2023-12-26T22:28:50.979Z,6.78
2023-12-26T22:34:56.839Z,6.45
2023-12-26T22:39:55.916Z,6.75
2023-12-26T22:42:25.043Z,6.10
2023-12-26T22:44:55.193Z,6.60
2023-12-26T22:47:24.492Z,6.50
2023-12-26T22:49:54.583Z,5.78
2023-12-26T22:52:24.546Z,6.15
2023-12-26T22:54:53.820Z,5.65
2023-12-26T23:03:50.099Z,5.78
2023-12-26T23:06:17.117Z,6.05
2023-12-26T23:08:43.946Z,6.32
2023-12-26T23:11:22.300Z,5.70
2023-12-26T23:14:54.353Z,5.65
2023-12-26T23:16:55.133Z,5.75
2023-12-26T23:22:05.212Z,6.05
2023-12-26T23:24:34.678Z,6.30
2023-12-26T23:27:03.875Z,6.40
2023-12-26T23:32:15.136Z,5.90
2023-12-26T23:42:14.211Z,5.43
2023-12-26T23:48:06.650Z,5.88
2023-12-26T23:50:35.866Z,5.65
2023-12-26T23:53:05.867Z,5.15
2023-12-26T23:55:35.648Z,5.63
2023-12-26T23:58:05.789Z,5.70
